createdAt,value
2018-09-05T00:02:09.124Z,31.37
2018-09-05T00:04:37.309Z,14.20
2018-09-05T00:07:05.613Z,14.70
2018-09-05T00:09:33.845Z,13.27
2018-09-05T00:12:02.034Z,14.30
2018-09-05T00:14:30.249Z,14.20
2018-09-05T00:16:58.431Z,14.37
2018-09-05T00:19:26.625Z,11.50
2018-09-05T00:21:54.893Z,12.97
2018-09-05T00:24:23.151Z,13.27
2018-09-05T00:26:51.365Z,11.67
2018-09-05T00:29:19.569Z,12.63
2018-09-05T00:31:47.776Z,12.70
2018-09-05T00:34:15.972Z,10.80
2018-09-05T00:36:44.278Z,9.77
2018-09-05T00:39:12.491Z,16.30
2018-09-05T00:41:40.686Z,12.87
2018-09-05T00:44:08.887Z,16.43
2018-09-05T00:46:37.060Z,11.17
2018-09-05T00:49:05.305Z,11.90
2018-09-05T00:51:33.518Z,9.53
2018-09-05T00:54:01.684Z,10.03
2018-09-05T00:56:29.901Z,12.40
2018-09-05T00:58:58.088Z,11.93
2018-09-05T01:01:27.050Z,9.17
2018-09-05T01:03:55.261Z,9.20
2018-09-05T01:06:23.492Z,11.27
2018-09-05T01:08:51.729Z,11.37
2018-09-05T01:11:19.898Z,14.90
2018-09-05T01:13:48.186Z,10.90
2018-09-05T01:16:16.561Z,10.50
2018-09-05T01:18:44.801Z,12.83
2018-09-05T01:21:12.998Z,9.10
2018-09-05T01:23:41.185Z,9.73
2018-09-05T01:26:09.384Z,9.30
2018-09-05T01:28:37.589Z,8.60
2018-09-05T01:31:05.797Z,8.20
2018-09-05T01:33:34.872Z,8.63
2018-09-05T01:36:10.013Z,9.30
2018-09-05T01:38:38.228Z,8.17
2018-09-05T01:41:06.442Z,9.47
2018-09-05T01:43:34.608Z,9.90
2018-09-05T01:46:02.833Z,9.07
2018-09-05T01:48:31.082Z,9.40
2018-09-05T01:50:59.337Z,7.43
2018-09-05T01:53:27.537Z,9.67
2018-09-05T01:55:55.705Z,7.77
2018-09-05T01:58:23.905Z,7.80
2018-09-05T02:00:52.072Z,6.70
2018-09-05T02:03:20.293Z,9.43
2018-09-05T02:05:48.485Z,6.97
2018-09-05T02:08:16.743Z,6.70
2018-09-05T02:10:44.953Z,6.83
2018-09-05T02:13:13.113Z,7.07
2018-09-05T02:15:41.329Z,9.00
2018-09-05T02:18:09.516Z,8.20
2018-09-05T02:20:37.733Z,13.07
2018-09-05T02:23:05.948Z,9.87
2018-09-05T02:25:34.177Z,9.03
2018-09-05T02:28:02.437Z,6.90
2018-09-05T02:30:30.602Z,8.80
2018-09-05T02:32:58.797Z,11.20
2018-09-05T02:35:27.015Z,6.80
2018-09-05T02:37:55.269Z,7.40
2018-09-05T02:40:23.549Z,7.43
2018-09-05T02:42:51.716Z,9.33
2018-09-05T02:45:19.951Z,7.70
2018-09-05T02:47:48.141Z,8.33
2018-09-05T02:50:16.342Z,7.60
2018-09-05T02:52:44.648Z,7.20
2018-09-05T02:55:17.294Z,9.37
2018-09-05T02:57:45.489Z,8.03
2018-09-05T03:00:13.657Z,8.23
2018-09-05T03:02:41.848Z,8.73
2018-09-05T03:05:10.012Z,8.73
2018-09-05T03:07:38.220Z,8.93
2018-09-05T03:10:06.448Z,7.60
2018-09-05T03:12:34.642Z,7.30
2018-09-05T03:15:02.866Z,10.50
2018-09-05T03:17:31.036Z,10.27
2018-09-05T03:19:59.299Z,9.23
2018-09-05T03:22:27.478Z,7.13
2018-09-05T03:24:55.674Z,7.37
2018-09-05T03:27:23.893Z,6.53
2018-09-05T03:29:52.053Z,7.47
2018-09-05T03:32:20.323Z,8.10
2018-09-05T03:34:48.529Z,7.03
2018-09-05T03:37:16.765Z,9.33
2018-09-05T03:39:44.954Z,9.10
2018-09-05T03:42:13.112Z,6.90
2018-09-05T03:44:41.317Z,6.80
2018-09-05T03:47:09.492Z,7.40
2018-09-05T03:49:37.703Z,6.60
2018-09-05T03:52:05.966Z,7.67
2018-09-05T03:54:34.129Z,6.43
2018-09-05T03:57:02.344Z,6.97
2018-09-05T03:59:30.514Z,8.90
2018-09-05T04:01:58.719Z,16.00
2018-09-05T04:04:26.925Z,7.80
2018-09-05T04:06:55.109Z,8.10
2018-09-05T04:09:23.317Z,8.60
2018-09-05T04:11:51.507Z,7.63
2018-09-05T04:14:19.712Z,7.80
2018-09-05T04:16:47.933Z,11.63
2018-09-05T04:19:16.118Z,10.03
2018-09-05T04:21:44.342Z,6.93
2018-09-05T04:24:12.538Z,7.10
2018-09-05T04:26:40.769Z,10.27
2018-09-05T04:29:09.021Z,13.93
2018-09-05T04:31:37.200Z,15.93
2018-09-05T04:34:05.445Z,9.03
2018-09-05T04:36:33.735Z,6.40
2018-09-05T04:39:02.038Z,7.63
2018-09-05T04:41:30.263Z,7.50
2018-09-05T04:43:58.458Z,7.40
2018-09-05T04:46:26.672Z,7.60
2018-09-05T04:48:54.884Z,7.13
2018-09-05T04:51:23.069Z,9.40
2018-09-05T04:53:51.318Z,7.03
2018-09-05T04:56:19.547Z,10.47
2018-09-05T04:58:47.772Z,7.07
2018-09-05T05:01:15.961Z,13.47
2018-09-05T05:03:44.168Z,13.73
2018-09-05T05:06:12.389Z,8.63
2018-09-05T05:08:40.583Z,18.13
2018-09-05T05:11:08.805Z,8.30
2018-09-05T05:13:37.014Z,8.87
2018-09-05T05:16:05.559Z,8.53
2018-09-05T05:18:33.775Z,6.80
2018-09-05T05:21:02.001Z,10.33
2018-09-05T05:23:30.222Z,7.63
2018-09-05T05:25:58.476Z,7.50
2018-09-05T05:28:26.684Z,9.77
2018-09-05T05:30:54.901Z,7.17
2018-09-05T05:33:23.076Z,7.20
2018-09-05T05:35:51.282Z,7.90
2018-09-05T05:38:19.499Z,6.97
2018-09-05T05:40:47.702Z,9.83
2018-09-05T05:43:15.930Z,8.00
2018-09-05T05:45:44.133Z,6.40
2018-09-05T05:48:12.337Z,10.50
2018-09-05T05:50:40.508Z,7.33
2018-09-05T05:53:08.705Z,6.90
2018-09-05T05:55:36.876Z,7.80
2018-09-05T05:58:05.225Z,6.40
2018-09-05T06:00:33.473Z,6.60
2018-09-05T06:03:01.680Z,9.20
2018-09-05T06:05:29.909Z,11.63
2018-09-05T06:07:58.085Z,6.77
2018-09-05T06:10:27.230Z,9.90
2018-09-05T06:12:57.133Z,6.97
2018-09-05T06:15:25.883Z,6.80
2018-09-05T06:17:54.155Z,11.40
2018-09-05T06:20:22.314Z,8.07
2018-09-05T06:22:50.534Z,6.23
2018-09-05T06:25:18.780Z,7.50
2018-09-05T06:27:47.046Z,7.30
2018-09-05T06:30:15.433Z,5.77
2018-09-05T06:32:43.621Z,15.07
2018-09-05T06:35:11.854Z,6.93
2018-09-05T06:37:40.023Z,6.57
2018-09-05T06:40:08.241Z,6.57
2018-09-05T06:42:36.684Z,6.50
2018-09-05T06:45:04.932Z,6.23
2018-09-05T06:47:33.148Z,6.57
2018-09-05T06:50:01.318Z,7.83
2018-09-05T06:52:29.529Z,6.40
2018-09-05T06:54:57.704Z,6.40
2018-09-05T06:57:25.994Z,8.67
2018-09-05T06:59:54.285Z,7.70
2018-09-05T07:02:22.502Z,7.90
2018-09-05T07:04:51.072Z,6.93
2018-09-05T07:07:19.405Z,7.27
2018-09-05T07:09:47.616Z,6.00
2018-09-05T07:12:15.794Z,8.00
2018-09-05T07:14:44.002Z,6.40
2018-09-05T07:17:12.202Z,6.03
2018-09-05T07:19:40.397Z,8.43
2018-09-05T07:22:08.655Z,7.27
2018-09-05T07:24:36.809Z,6.67
2018-09-05T07:27:05.002Z,6.10
2018-09-05T07:29:33.205Z,6.43
2018-09-05T07:32:01.429Z,6.37
2018-09-05T07:34:29.688Z,6.83
2018-09-05T07:36:57.901Z,6.90
2018-09-05T07:39:26.150Z,6.60
2018-09-05T07:41:54.389Z,8.20
2018-09-05T07:44:22.661Z,6.30
2018-09-05T07:46:50.986Z,6.97
2018-09-05T07:49:19.183Z,7.20
2018-09-05T07:51:47.384Z,7.10
2018-09-05T07:54:15.549Z,7.60
2018-09-05T07:56:43.736Z,7.27
2018-09-05T07:59:12.421Z,7.10
2018-09-05T08:01:40.703Z,7.03
2018-09-05T08:04:09.503Z,6.87
2018-09-05T08:06:37.673Z,6.50
2018-09-05T08:09:08.537Z,6.43
2018-09-05T08:11:36.793Z,6.93
2018-09-05T08:14:05.316Z,6.10
2018-09-05T08:16:33.597Z,6.73
2018-09-05T08:19:02.221Z,6.30
2018-09-05T08:21:31.039Z,6.70
2018-09-05T08:24:00.070Z,7.13
2018-09-05T08:26:29.193Z,8.10
2018-09-05T08:28:57.574Z,7.83
2018-09-05T08:31:27.428Z,9.20
2018-09-05T08:33:56.808Z,8.90
2018-09-05T08:36:26.890Z,13.00
2018-09-05T08:38:56.282Z,9.20
2018-09-05T08:41:24.438Z,8.43
2018-09-05T08:43:52.781Z,9.60
2018-09-05T08:46:24.021Z,10.50
2018-09-05T08:48:52.437Z,8.17
2018-09-05T08:51:21.552Z,8.90
2018-09-05T08:53:50.281Z,9.53
2018-09-05T08:56:18.607Z,8.90
2018-09-05T08:58:46.832Z,9.73
2018-09-05T09:01:15.005Z,8.73
2018-09-05T09:03:43.206Z,11.00
2018-09-05T09:06:11.369Z,8.47
2018-09-05T09:08:39.557Z,9.53
2018-09-05T09:11:07.744Z,9.30
2018-09-05T09:13:35.964Z,10.40
2018-09-05T09:16:04.261Z,8.60
2018-09-05T09:18:32.561Z,7.93
2018-09-05T09:21:00.761Z,11.20
2018-09-05T09:23:28.937Z,10.10
2018-09-05T09:25:57.136Z,9.33
2018-09-05T09:28:25.398Z,10.80
2018-09-05T09:30:53.572Z,12.87
2018-09-05T09:33:21.789Z,10.97
2018-09-05T09:35:49.969Z,11.50
2018-09-05T09:38:18.324Z,11.60
2018-09-05T09:40:46.511Z,12.53
2018-09-05T09:43:14.753Z,14.10
2018-09-05T09:45:42.969Z,13.00
2018-09-05T09:48:11.208Z,12.90
2018-09-05T09:50:39.428Z,12.07
2018-09-05T09:53:07.826Z,12.63
2018-09-05T09:55:36.061Z,13.70
2018-09-05T09:58:04.504Z,13.37
2018-09-05T10:00:38.149Z,14.40
2018-09-05T10:03:11.846Z,13.10
2018-09-05T10:05:45.597Z,18.40
2018-09-05T10:08:19.293Z,16.07
2018-09-05T10:10:53.092Z,14.23
2018-09-05T10:13:26.729Z,14.60
2018-09-05T10:16:00.517Z,16.27
2018-09-05T10:18:30.649Z,12.60
2018-09-05T10:20:58.964Z,14.80
2018-09-05T10:23:27.174Z,13.73
2018-09-05T10:25:55.448Z,13.63
2018-09-05T10:28:23.837Z,13.97
2018-09-05T10:30:52.016Z,15.10
2018-09-05T10:33:20.286Z,14.37
2018-09-05T10:35:48.506Z,14.77
2018-09-05T10:38:16.715Z,16.10
2018-09-05T10:40:45.225Z,16.30
2018-09-05T10:43:13.451Z,14.90
2018-09-05T10:45:41.648Z,16.53
2018-09-05T10:48:09.923Z,15.20
2018-09-05T10:50:38.182Z,14.60
2018-09-05T10:53:06.692Z,14.57
2018-09-05T10:55:35.046Z,14.87
2018-09-05T10:58:03.545Z,15.80
2018-09-05T11:00:31.757Z,15.10
2018-09-05T11:02:59.967Z,16.77
2018-09-05T11:05:28.176Z,16.73
2018-09-05T11:07:56.373Z,15.17
2018-09-05T11:10:24.583Z,16.47
2018-09-05T11:12:52.815Z,17.67
2018-09-05T11:15:21.074Z,17.03
2018-09-05T11:17:49.324Z,20.40
2018-09-05T11:20:17.674Z,15.37
2018-09-05T11:22:45.825Z,16.77
2018-09-05T11:25:14.032Z,16.63
2018-09-05T11:27:42.299Z,18.53
2018-09-05T11:30:10.520Z,19.47
2018-09-05T11:32:38.741Z,15.90
2018-09-05T11:35:06.947Z,16.87
2018-09-05T11:37:35.253Z,17.70
2018-09-05T11:40:03.822Z,16.43
2018-09-05T11:42:32.024Z,17.17
2018-09-05T11:45:00.225Z,15.80
2018-09-05T11:47:28.424Z,18.57
2018-09-05T11:49:56.637Z,20.60
2018-09-05T11:52:24.829Z,17.63
2018-09-05T11:54:53.024Z,20.23
2018-09-05T11:57:21.336Z,19.97
2018-09-05T11:59:49.505Z,17.23
2018-09-05T12:02:17.874Z,22.50
2018-09-05T12:04:46.093Z,21.93
2018-09-05T12:07:14.349Z,24.50
2018-09-05T12:09:42.565Z,18.80
2018-09-05T12:12:11.494Z,19.73
2018-09-05T12:14:39.709Z,20.10
2018-09-05T12:17:08.313Z,19.57
2018-09-05T12:19:36.522Z,47.43
2018-09-05T12:22:04.745Z,16.73
2018-09-05T12:24:32.938Z,16.77
2018-09-05T12:27:01.153Z,19.93
2018-09-05T12:29:30.721Z,18.17
2018-09-05T12:31:59.021Z,18.07
2018-09-05T12:34:27.220Z,22.00
2018-09-05T12:36:55.394Z,16.60
2018-09-05T12:39:23.597Z,18.93
2018-09-05T12:41:51.800Z,18.37
2018-09-05T12:44:20.005Z,19.77
2018-09-05T12:46:48.228Z,18.10
2018-09-05T12:49:16.514Z,17.40
2018-09-05T12:51:44.731Z,20.53
2018-09-05T12:54:13.029Z,19.30
2018-09-05T12:56:41.273Z,19.73
2018-09-05T12:59:09.507Z,17.87
2018-09-05T13:01:37.711Z,18.87
2018-09-05T13:04:06.065Z,17.77
2018-09-05T13:06:34.701Z,19.83
2018-09-05T13:09:04.652Z,20.07
2018-09-05T13:11:32.868Z,19.17
2018-09-05T13:14:01.070Z,18.47
2018-09-05T13:16:29.280Z,18.17
2018-09-05T13:18:57.472Z,20.63
2018-09-05T13:21:25.681Z,19.97
2018-09-05T13:23:53.894Z,20.13
2018-09-05T13:26:22.077Z,20.83
2018-09-05T13:28:50.285Z,21.17
2018-09-05T13:31:18.486Z,19.70
2018-09-05T13:33:46.700Z,26.13
2018-09-05T13:36:15.057Z,20.90
2018-09-05T13:38:43.260Z,20.63
2018-09-05T13:41:11.468Z,19.40
2018-09-05T13:43:39.649Z,20.97
2018-09-05T13:46:07.860Z,21.13
2018-09-05T13:48:36.082Z,21.83
2018-09-05T13:51:04.462Z,19.37
2018-09-05T13:53:32.820Z,21.53
2018-09-05T13:56:01.118Z,21.37
2018-09-05T13:58:30.505Z,19.90
2018-09-05T14:00:58.822Z,19.47
2018-09-05T14:03:27.007Z,21.40
2018-09-05T14:05:55.227Z,19.93
2018-09-05T14:08:23.400Z,21.23
2018-09-05T14:10:51.689Z,20.50
2018-09-05T14:13:19.946Z,20.53
2018-09-05T14:15:48.113Z,23.93
2018-09-05T14:18:16.331Z,22.33
2018-09-05T14:20:44.683Z,23.10
2018-09-05T14:23:12.867Z,21.07
2018-09-05T14:25:41.066Z,22.30
2018-09-05T14:28:09.260Z,29.27
2018-09-05T14:30:37.555Z,20.80
2018-09-05T14:33:05.793Z,21.80
2018-09-05T14:35:33.992Z,20.10
2018-09-05T14:38:02.280Z,23.60
2018-09-05T14:40:30.472Z,22.40
2018-09-05T14:42:58.697Z,19.53
2018-09-05T14:45:26.872Z,23.37
2018-09-05T14:47:55.093Z,20.33
2018-09-05T14:50:23.349Z,21.70
2018-09-05T14:52:51.525Z,20.10
2018-09-05T14:55:19.913Z,21.37
2018-09-05T14:57:48.282Z,21.90
2018-09-05T15:00:16.576Z,22.43
2018-09-05T15:02:44.859Z,20.83
2018-09-05T15:05:13.153Z,21.57
2018-09-05T15:07:45.857Z,22.90
2018-09-05T15:10:14.093Z,24.13
2018-09-05T15:12:42.500Z,25.87
2018-09-05T15:15:10.769Z,25.30
2018-09-05T15:17:38.993Z,23.20
2018-09-05T15:20:08.218Z,20.60
2018-09-05T15:22:37.083Z,22.67
2018-09-05T15:25:05.692Z,25.17
2018-09-05T15:27:33.901Z,21.73
2018-09-05T15:30:02.078Z,22.90
2018-09-05T15:32:30.309Z,25.87
2018-09-05T15:34:58.757Z,23.33
2018-09-05T15:37:26.980Z,24.50
2018-09-05T15:39:55.222Z,22.87
2018-09-05T15:42:23.410Z,24.23
2018-09-05T15:44:51.664Z,24.07
2018-09-05T15:47:19.862Z,23.77
2018-09-05T15:49:48.123Z,22.77
2018-09-05T15:52:18.607Z,22.50
2018-09-05T15:54:46.797Z,25.17
2018-09-05T15:57:15.227Z,24.73
2018-09-05T15:59:43.509Z,30.83
2018-09-05T16:02:11.869Z,21.77
2018-09-05T16:04:40.161Z,21.60
2018-09-05T16:07:08.611Z,25.53
2018-09-05T16:09:36.860Z,26.43
2018-09-05T16:12:05.090Z,22.97
2018-09-05T16:14:33.301Z,20.80
2018-09-05T16:17:01.565Z,22.40
2018-09-05T16:19:29.733Z,25.93
2018-09-05T16:21:57.988Z,24.73
2018-09-05T16:24:26.143Z,25.70
2018-09-05T16:26:54.349Z,25.73
2018-09-05T16:29:22.588Z,28.63
2018-09-05T16:31:50.767Z,24.97
2018-09-05T16:34:19.063Z,28.37
2018-09-05T16:36:47.234Z,24.50
2018-09-05T16:39:15.456Z,25.53
2018-09-05T16:41:43.633Z,25.13
2018-09-05T16:44:11.841Z,25.37
2018-09-05T16:46:40.122Z,23.33
2018-09-05T16:49:08.322Z,23.57
2018-09-05T16:51:36.550Z,22.33
2018-09-05T16:54:04.797Z,31.57
2018-09-05T16:56:33.913Z,25.10
2018-09-05T16:59:02.213Z,25.87
2018-09-05T17:01:30.471Z,29.93
2018-09-05T17:03:58.773Z,25.60
2018-09-05T17:06:27.194Z,24.07
2018-09-05T17:08:55.454Z,26.40
2018-09-05T17:11:23.944Z,23.80
2018-09-05T17:13:52.187Z,23.30
2018-09-05T17:16:20.453Z,25.83
2018-09-05T17:18:48.669Z,25.83
2018-09-05T17:21:16.890Z,33.67
2018-09-05T17:23:45.147Z,32.77
2018-09-05T17:26:13.330Z,31.47
2018-09-05T17:28:41.569Z,32.43
2018-09-05T17:31:09.847Z,32.13
2018-09-05T17:33:38.081Z,30.77
2018-09-05T17:36:06.556Z,29.30
2018-09-05T17:38:35.128Z,27.87
2018-09-05T17:41:03.348Z,36.67
2018-09-05T17:43:31.538Z,31.60
2018-09-05T17:45:59.755Z,40.03
2018-09-05T17:48:28.105Z,36.17
2018-09-05T17:50:56.313Z,23.57
2018-09-05T17:53:24.536Z,28.03
2018-09-05T17:55:52.734Z,31.07
2018-09-05T17:58:20.950Z,31.33
2018-09-05T18:00:49.130Z,30.40
2018-09-05T18:03:17.333Z,26.53
2018-09-05T18:05:45.550Z,29.57
2018-09-05T18:08:13.800Z,28.17
2018-09-05T18:10:42.065Z,31.20
2018-09-05T18:13:10.285Z,29.13
2018-09-05T18:15:38.491Z,28.90
2018-09-05T18:18:06.674Z,29.00
2018-09-05T18:20:34.993Z,31.63
2018-09-05T18:23:03.307Z,32.03
2018-09-05T18:25:31.496Z,34.10
2018-09-05T18:27:59.741Z,32.53
2018-09-05T18:30:27.921Z,33.47
2018-09-05T18:32:56.129Z,33.03
2018-09-05T18:35:24.353Z,34.00
2018-09-05T18:37:52.521Z,31.77
2018-09-05T18:40:20.734Z,33.83
2018-09-05T18:42:48.956Z,33.97
2018-09-05T18:45:17.226Z,30.43
2018-09-05T18:47:45.434Z,33.40
2018-09-05T18:50:13.621Z,36.90
2018-09-05T18:52:41.824Z,34.07
2018-09-05T18:55:10.004Z,34.63
2018-09-05T18:57:38.197Z,33.93
2018-09-05T19:00:06.473Z,38.10
2018-09-05T19:02:34.727Z,36.40
2018-09-05T19:05:03.201Z,36.57
2018-09-05T19:07:31.468Z,35.77
2018-09-05T19:09:59.765Z,37.53
2018-09-05T19:12:28.098Z,39.93
2018-09-05T19:14:56.457Z,38.20
2018-09-05T19:17:24.830Z,37.60
2018-09-05T19:19:54.518Z,39.17
2018-09-05T19:22:22.786Z,36.77
2018-09-05T19:24:51.008Z,41.47
2018-09-05T19:27:19.212Z,43.83
2018-09-05T19:29:47.385Z,40.03
2018-09-05T19:32:15.601Z,41.07
2018-09-05T19:34:43.903Z,40.67
2018-09-05T19:37:12.177Z,41.43
2018-09-05T19:39:40.390Z,41.77
2018-09-05T19:42:08.637Z,40.37
2018-09-05T19:44:38.693Z,42.77
2018-09-05T19:47:07.257Z,45.53
2018-09-05T19:49:38.732Z,46.57
2018-09-05T19:52:09.047Z,39.30
2018-09-05T19:54:41.479Z,43.43
2018-09-05T19:57:12.032Z,43.87
2018-09-05T19:59:42.481Z,41.13
2018-09-05T20:02:11.900Z,32.03
2018-09-05T20:04:40.885Z,34.03
2018-09-05T20:07:10.250Z,38.37
2018-09-05T20:09:38.569Z,35.13
2018-09-05T20:12:06.797Z,36.00
2018-09-05T20:14:35.033Z,35.67
2018-09-05T20:17:03.288Z,38.53
2018-09-05T20:24:23.654Z,32.80
2018-09-05T20:26:51.862Z,33.43
2018-09-05T20:29:20.089Z,34.70
2018-09-05T20:31:48.340Z,37.40
2018-09-05T20:34:16.565Z,31.43
2018-09-05T20:36:44.877Z,55.87
2018-09-05T20:39:13.220Z,32.30
2018-09-05T20:41:41.745Z,35.43
2018-09-05T20:44:10.149Z,32.17
2018-09-05T20:46:39.746Z,30.40
2018-09-05T20:49:08.212Z,32.43
2018-09-05T20:51:36.548Z,35.40
2018-09-05T20:54:05.636Z,34.37
2018-09-05T20:56:33.841Z,34.43
2018-09-05T20:59:02.057Z,34.37
2018-09-05T21:01:30.265Z,33.20
2018-09-05T21:03:58.473Z,32.00
2018-09-05T21:06:26.729Z,34.37
2018-09-05T21:08:54.912Z,38.87
2018-09-05T21:11:23.076Z,33.80
2018-09-05T21:13:51.417Z,31.20
2018-09-05T21:16:19.767Z,33.70
2018-09-05T21:18:48.049Z,32.83
2018-09-05T21:21:16.264Z,29.80
2018-09-05T21:23:44.425Z,28.07
2018-09-05T21:26:12.622Z,31.80
2018-09-05T21:28:40.792Z,30.20
2018-09-05T21:31:09.045Z,26.83
2018-09-05T21:33:37.245Z,33.83
2018-09-05T21:36:05.441Z,27.70
2018-09-05T21:38:33.729Z,34.73
2018-09-05T21:41:01.913Z,24.57
2018-09-05T21:43:30.108Z,25.17
2018-09-05T21:45:58.277Z,24.53
2018-09-05T21:48:26.852Z,28.63
2018-09-05T21:50:55.049Z,24.40
2018-09-05T21:53:23.208Z,26.77
2018-09-05T21:55:51.428Z,29.70
2018-09-05T21:58:19.838Z,26.00
2018-09-05T22:00:48.384Z,25.87
2018-09-05T22:03:16.761Z,23.77
2018-09-05T22:05:44.926Z,23.33
2018-09-05T22:08:13.125Z,22.90
2018-09-05T22:10:41.321Z,28.03
2018-09-05T22:13:09.547Z,24.73
2018-09-05T22:15:45.290Z,26.57
2018-09-05T22:18:13.772Z,25.27
2018-09-05T22:20:42.033Z,25.13
2018-09-05T22:23:10.194Z,28.33
2018-09-05T22:25:38.396Z,22.90
2018-09-05T22:28:06.682Z,27.40
2018-09-05T22:30:34.903Z,23.30
2018-09-05T22:33:03.812Z,21.40
2018-09-05T22:35:32.013Z,22.17
2018-09-05T22:38:00.229Z,24.63
2018-09-05T22:40:30.481Z,25.20
2018-09-05T22:43:10.493Z,23.10
2018-09-05T22:45:49.629Z,27.40
2018-09-05T22:48:34.397Z,29.20
2018-09-05T22:52:18.685Z,29.60
2018-09-05T22:55:18.557Z,28.33
2018-09-05T22:59:01.379Z,24.33
2018-09-05T23:01:41.646Z,23.23
2018-09-05T23:04:28.665Z,24.73
2018-09-05T23:08:13.255Z,30.43
2018-09-05T23:10:52.358Z,25.30
2018-09-05T23:14:32.469Z,30.63
2018-09-05T23:18:11.057Z,27.20
2018-09-05T23:21:23.941Z,25.10
2018-09-05T23:24:08.990Z,22.03
2018-09-05T23:26:37.229Z,26.20
2018-09-05T23:29:05.546Z,25.27
2018-09-05T23:31:33.786Z,26.43
2018-09-05T23:34:01.987Z,28.27
2018-09-05T23:36:30.202Z,22.10
2018-09-05T23:38:58.425Z,23.07
2018-09-05T23:41:26.586Z,24.43
2018-09-05T23:43:54.798Z,24.00
2018-09-05T23:46:22.985Z,23.83
2018-09-05T23:48:51.195Z,23.60
2018-09-05T23:51:19.394Z,24.77
2018-09-05T23:53:47.607Z,29.00
2018-09-05T23:56:15.914Z,25.73
2018-09-05T23:58:44.090Z,25.07
